createdAt,value
2017-09-25T00:02:23.257Z,92.40
2017-09-25T00:04:53.636Z,92.60
2017-09-25T00:07:25.680Z,92.30
2017-09-25T00:09:56.931Z,92.10
2017-09-25T00:12:27.514Z,92.10
2017-09-25T00:14:58.200Z,92.30
2017-09-25T00:17:28.551Z,91.70
2017-09-25T00:19:58.870Z,91.50
2017-09-25T00:22:29.194Z,91.50
2017-09-25T00:25:01.082Z,91.40
2017-09-25T00:27:32.311Z,91.40
2017-09-25T00:30:02.624Z,91.40
2017-09-25T00:32:33.402Z,91.40
2017-09-25T00:35:03.788Z,91.30
2017-09-25T00:37:34.825Z,90.90
2017-09-25T00:40:07.218Z,90.90
2017-09-25T00:42:37.536Z,90.90
2017-09-25T00:45:07.814Z,91.30
2017-09-25T00:47:38.528Z,91.60
2017-09-25T00:50:08.934Z,91.70
2017-09-25T00:52:49.249Z,91.40
2017-09-25T00:55:28.013Z,91.60
2017-09-25T00:57:59.295Z,91.40
2017-09-25T01:00:39.935Z,91.30
2017-09-25T01:03:19.620Z,91.10
2017-09-25T01:05:58.954Z,91.10
2017-09-25T01:08:29.416Z,91.10
2017-09-25T01:11:00.498Z,91.10
2017-09-25T01:13:31.323Z,91.10
2017-09-25T01:16:01.516Z,91.10
2017-09-25T01:18:32.194Z,91.00
2017-09-25T01:21:02.601Z,90.90
2017-09-25T01:23:32.987Z,90.80
2017-09-25T01:26:03.461Z,90.60
2017-09-25T01:28:33.795Z,90.40
2017-09-25T01:31:04.123Z,90.40
2017-09-25T01:33:34.963Z,90.60
2017-09-25T01:36:05.163Z,90.70
2017-09-25T01:38:35.430Z,90.80
2017-09-25T01:41:06.435Z,90.80
2017-09-25T01:43:37.158Z,90.80
2017-09-25T01:46:07.437Z,90.80
2017-09-25T01:48:37.714Z,90.90
2017-09-25T01:51:07.985Z,91.20
2017-09-25T01:53:39.004Z,93.30
2017-09-25T01:56:09.332Z,92.40
2017-09-25T01:58:41.082Z,92.30
2017-09-25T02:01:11.710Z,92.30
2017-09-25T02:03:42.371Z,93.00
2017-09-25T02:06:12.749Z,92.60
2017-09-25T02:08:43.871Z,93.70
2017-09-25T02:11:14.426Z,93.40
2017-09-25T02:13:44.872Z,93.50
2017-09-25T02:16:15.867Z,93.40
2017-09-25T02:18:46.113Z,94.30
2017-09-25T02:21:16.235Z,93.90
2017-09-25T02:23:46.627Z,93.30
2017-09-25T02:26:17.389Z,93.30
2017-09-25T02:28:47.642Z,93.00
2017-09-25T02:31:17.954Z,92.70
2017-09-25T02:33:48.934Z,93.00
2017-09-25T02:36:19.198Z,93.00
2017-09-25T02:38:49.642Z,92.80
2017-09-25T02:41:19.897Z,92.80
2017-09-25T02:43:52.626Z,92.90
2017-09-25T02:46:22.891Z,92.90
2017-09-25T02:48:54.237Z,93.30
2017-09-25T02:51:24.516Z,93.30
2017-09-25T02:53:54.989Z,93.50
2017-09-25T02:56:25.718Z,93.00
2017-09-25T02:58:55.879Z,92.90
2017-09-25T03:01:26.067Z,92.80
2017-09-25T03:03:57.397Z,92.60
2017-09-25T03:06:27.818Z,92.60
2017-09-25T03:08:58.062Z,92.60
2017-09-25T03:11:28.625Z,93.10
2017-09-25T03:13:59.280Z,93.20
2017-09-25T03:16:29.597Z,92.70
2017-09-25T03:18:59.695Z,92.90
2017-09-25T03:21:30.457Z,92.90
2017-09-25T03:24:00.754Z,92.90
2017-09-25T03:26:30.876Z,92.80
2017-09-25T03:29:01.073Z,92.60
2017-09-25T03:31:32.342Z,92.80
2017-09-25T03:34:03.209Z,92.80
2017-09-25T03:36:33.823Z,92.70
2017-09-25T03:39:04.483Z,92.80
2017-09-25T03:41:35.201Z,92.60
2017-09-25T03:44:05.587Z,92.90
2017-09-25T03:46:35.929Z,93.10
2017-09-25T03:49:06.190Z,92.90
2017-09-25T03:51:36.375Z,92.80
2017-09-25T03:54:06.511Z,92.60
2017-09-25T03:56:37.221Z,92.70
2017-09-25T03:59:07.558Z,92.70
2017-09-25T04:01:37.793Z,92.50
2017-09-25T04:04:08.165Z,92.50
2017-09-25T04:06:38.320Z,93.10
2017-09-25T04:09:08.578Z,93.30
2017-09-25T04:11:38.960Z,93.30
2017-09-25T04:14:09.350Z,92.90
2017-09-25T04:16:39.715Z,93.10
2017-09-25T04:19:09.736Z,93.20
2017-09-25T04:21:39.996Z,93.00
2017-09-25T04:24:10.182Z,92.80
2017-09-25T04:26:40.865Z,93.00
2017-09-25T04:29:10.927Z,93.10
2017-09-25T04:31:41.089Z,93.00
2017-09-25T04:34:11.654Z,93.00
2017-09-25T04:39:28.638Z,92.70
2017-09-25T04:42:01.882Z,92.90
2017-09-25T04:44:36.216Z,92.80
2017-09-25T04:47:06.324Z,93.20
2017-09-25T04:49:37.185Z,93.10
2017-09-25T04:52:07.546Z,93.50
2017-09-25T04:54:38.024Z,93.30
2017-09-25T04:57:08.029Z,93.50
2017-09-25T04:59:38.170Z,93.60
2017-09-25T05:02:08.180Z,93.50
2017-09-25T05:04:38.371Z,93.60
2017-09-25T05:07:09.165Z,93.30
2017-09-25T05:09:39.803Z,93.30
2017-09-25T05:12:10.825Z,93.10
2017-09-25T05:14:40.850Z,93.30
2017-09-25T05:17:10.941Z,93.20
2017-09-25T05:19:41.017Z,93.20
2017-09-25T05:22:11.538Z,93.20
2017-09-25T05:24:41.799Z,93.50
2017-09-25T05:27:12.070Z,93.20
2017-09-25T05:29:42.148Z,93.10
2017-09-25T05:32:12.378Z,93.50
2017-09-25T05:34:42.414Z,93.70
2017-09-25T05:37:12.898Z,93.70
2017-09-25T05:39:43.021Z,93.40
2017-09-25T05:42:13.873Z,93.20
2017-09-25T05:44:44.044Z,93.20
2017-09-25T05:47:14.975Z,92.80
2017-09-25T05:49:45.098Z,92.80
2017-09-25T05:52:15.356Z,92.60
2017-09-25T05:54:45.454Z,92.60
2017-09-25T05:57:16.572Z,92.40
2017-09-25T05:59:47.324Z,92.40
2017-09-25T06:02:17.505Z,92.40
2017-09-25T06:04:47.675Z,92.40
2017-09-25T06:07:17.880Z,92.50
2017-09-25T06:09:48.056Z,92.60
2017-09-25T06:12:32.066Z,92.50
2017-09-25T06:15:10.555Z,92.30
2017-09-25T06:17:45.342Z,92.20
2017-09-25T06:20:15.760Z,92.30
2017-09-25T06:22:45.943Z,92.50
2017-09-25T06:25:15.985Z,92.40
2017-09-25T06:27:46.840Z,92.80
2017-09-25T06:30:16.914Z,92.80
2017-09-25T06:32:47.122Z,92.90
2017-09-25T06:35:18.725Z,92.90
2017-09-25T06:37:48.781Z,92.80
2017-09-25T06:40:19.748Z,92.70
2017-09-25T06:42:49.882Z,92.90
2017-09-25T06:45:20.783Z,92.80
2017-09-25T06:47:51.185Z,92.80
2017-09-25T06:50:21.558Z,92.70
2017-09-25T06:52:51.648Z,92.60
2017-09-25T06:55:21.725Z,92.60
2017-09-25T06:57:52.996Z,92.70
2017-09-25T07:00:23.313Z,92.60
2017-09-25T07:02:53.518Z,92.30
2017-09-25T07:05:23.846Z,92.40
2017-09-25T07:07:53.915Z,92.60
2017-09-25T07:10:24.038Z,92.60
2017-09-25T07:12:54.457Z,92.60
2017-09-25T07:15:25.371Z,92.60
2017-09-25T07:17:56.374Z,92.50
2017-09-25T07:20:26.797Z,92.60
2017-09-25T07:22:57.900Z,92.50
2017-09-25T07:25:27.965Z,92.50
2017-09-25T07:27:58.074Z,92.50
2017-09-25T07:30:28.885Z,92.60
2017-09-25T07:32:59.002Z,92.60
2017-09-25T07:35:29.150Z,92.20
2017-09-25T07:37:59.381Z,92.50
2017-09-25T07:40:29.634Z,92.70
2017-09-25T07:42:59.812Z,92.40
2017-09-25T07:45:30.255Z,92.40
2017-09-25T07:48:00.312Z,92.40
2017-09-25T07:50:30.733Z,92.40
2017-09-25T07:53:00.797Z,92.30
2017-09-25T07:55:31.633Z,92.50
2017-09-25T07:58:02.664Z,92.20
2017-09-25T08:00:33.865Z,92.30
2017-09-25T08:03:04.878Z,92.20
2017-09-25T08:05:35.035Z,92.20
2017-09-25T08:08:05.465Z,92.40
2017-09-25T08:10:35.639Z,92.40
2017-09-25T08:13:05.707Z,92.40
2017-09-25T08:15:35.902Z,92.40
2017-09-25T08:18:06.097Z,92.50
2017-09-25T08:20:36.349Z,92.60
2017-09-25T08:23:06.645Z,92.70
2017-09-25T08:25:36.946Z,92.60
2017-09-25T08:28:08.110Z,92.60
2017-09-25T08:30:38.585Z,92.60
2017-09-25T08:33:08.818Z,92.50
2017-09-25T08:35:38.890Z,92.60
2017-09-25T08:38:08.959Z,92.90
2017-09-25T08:40:39.041Z,92.80
2017-09-25T08:43:09.147Z,92.90
2017-09-25T08:45:39.806Z,92.80
2017-09-25T08:48:09.999Z,92.60
2017-09-25T08:50:40.071Z,92.50
2017-09-25T08:53:10.232Z,92.50
2017-09-25T08:55:40.805Z,92.70
2017-09-25T08:58:11.872Z,92.50
2017-09-25T09:00:42.391Z,92.50
2017-09-25T09:03:12.818Z,92.40
2017-09-25T09:05:43.598Z,92.40
2017-09-25T09:08:24.636Z,92.60
2017-09-25T09:10:56.478Z,92.60
2017-09-25T09:13:27.700Z,92.40
2017-09-25T09:15:58.003Z,92.40
2017-09-25T09:18:28.641Z,92.80
2017-09-25T09:20:59.117Z,92.80
2017-09-25T09:23:30.279Z,92.90
2017-09-25T09:26:00.958Z,92.90
2017-09-25T09:28:31.336Z,92.90
2017-09-25T09:31:01.737Z,92.80
2017-09-25T09:33:39.857Z,92.60
2017-09-25T09:36:10.350Z,92.60
2017-09-25T09:38:41.281Z,92.80
2017-09-25T09:41:11.482Z,92.80
2017-09-25T09:43:42.111Z,92.90
2017-09-25T09:46:12.315Z,92.60
2017-09-25T09:48:43.841Z,92.90
2017-09-25T09:51:14.739Z,92.60
2017-09-25T09:53:52.762Z,92.60
2017-09-25T09:56:24.735Z,92.20
2017-09-25T09:58:54.832Z,92.20
2017-09-25T10:01:25.036Z,92.20
2017-09-25T10:03:55.183Z,92.20
2017-09-25T10:06:26.006Z,92.10
2017-09-25T10:08:56.075Z,92.10
2017-09-25T10:11:27.244Z,92.10
2017-09-25T10:13:57.425Z,92.10
2017-09-25T10:16:28.267Z,92.20
2017-09-25T10:18:58.407Z,91.90
2017-09-25T10:21:29.879Z,91.70
2017-09-25T10:23:59.974Z,91.70
2017-09-25T10:26:30.636Z,92.10
2017-09-25T10:29:00.792Z,90.60
2017-09-25T10:31:30.874Z,90.60
2017-09-25T10:34:01.026Z,89.90
2017-09-25T10:36:31.343Z,90.70
2017-09-25T10:39:01.575Z,90.20
2017-09-25T10:41:33.031Z,90.30
2017-09-25T10:44:03.170Z,90.00
2017-09-25T10:46:34.193Z,89.60
2017-09-25T10:49:05.024Z,89.60
2017-09-25T10:51:35.236Z,88.90
2017-09-25T10:54:05.506Z,89.50
2017-09-25T10:56:36.121Z,89.90
2017-09-25T10:59:06.904Z,89.70
2017-09-25T11:01:37.266Z,89.60
2017-09-25T11:04:07.627Z,89.10
2017-09-25T11:06:37.968Z,87.70
2017-09-25T11:09:08.200Z,88.40
2017-09-25T11:11:38.928Z,89.10
2017-09-25T11:14:09.251Z,88.40
2017-09-25T11:16:40.327Z,88.20
2017-09-25T11:19:10.496Z,87.60
2017-09-25T11:21:41.019Z,87.70
2017-09-25T11:24:11.170Z,88.80
2017-09-25T11:26:41.363Z,88.20
2017-09-25T11:29:11.740Z,88.00
2017-09-25T11:31:41.960Z,88.60
2017-09-25T11:34:12.652Z,88.00
2017-09-25T11:36:43.876Z,87.20
2017-09-25T11:39:14.296Z,88.30
2017-09-25T11:41:45.399Z,88.00
2017-09-25T11:44:17.239Z,87.90
2017-09-25T11:46:51.592Z,87.80
2017-09-25T11:49:22.594Z,88.20
2017-09-25T11:51:53.142Z,87.20
2017-09-25T11:54:23.456Z,87.50
2017-09-25T11:56:53.643Z,87.90
2017-09-25T11:59:23.975Z,88.90
2017-09-25T12:01:54.969Z,89.20
2017-09-25T12:04:25.446Z,89.50
2017-09-25T12:06:56.281Z,89.20
2017-09-25T12:09:26.974Z,90.00
2017-09-25T12:11:57.469Z,90.10
2017-09-25T12:14:28.129Z,90.00
2017-09-25T12:16:58.608Z,89.80
2017-09-25T12:19:28.931Z,90.10
2017-09-25T12:21:59.131Z,90.40
2017-09-25T12:24:29.390Z,89.20
2017-09-25T12:27:00.007Z,88.50
2017-09-25T12:29:30.475Z,88.90
2017-09-25T12:32:00.565Z,87.20
2017-09-25T12:34:31.080Z,86.40
2017-09-25T12:37:01.172Z,86.70
2017-09-25T12:39:31.279Z,85.60
2017-09-25T12:42:02.587Z,86.30
2017-09-25T12:44:33.191Z,86.30
2017-09-25T12:47:03.520Z,85.30
2017-09-25T12:49:33.581Z,86.00
2017-09-25T12:52:04.305Z,86.40
2017-09-25T12:54:34.437Z,87.00
2017-09-25T12:57:04.676Z,87.30
2017-09-25T12:59:34.938Z,86.80
2017-09-25T13:02:05.134Z,86.40
2017-09-25T13:04:36.303Z,86.80
2017-09-25T13:07:06.578Z,86.70
2017-09-25T13:09:37.917Z,84.50
2017-09-25T13:12:08.796Z,85.30
2017-09-25T13:14:39.027Z,85.30
2017-09-25T13:17:09.485Z,85.90
2017-09-25T13:19:39.672Z,85.00
2017-09-25T13:22:09.758Z,85.00
2017-09-25T13:24:43.037Z,84.90
2017-09-25T13:27:13.362Z,84.80
2017-09-25T13:29:43.788Z,84.40
2017-09-25T13:32:14.742Z,85.20
2017-09-25T13:34:45.167Z,85.20
2017-09-25T13:37:16.337Z,85.50
2017-09-25T13:39:46.832Z,85.90
2017-09-25T13:42:17.178Z,85.20
2017-09-25T13:44:52.615Z,84.80
2017-09-25T13:47:24.789Z,84.80
2017-09-25T13:50:26.628Z,84.70
2017-09-25T13:53:12.951Z,85.40
2017-09-25T13:55:44.165Z,85.30
2017-09-25T14:04:26.841Z,85.10
2017-09-25T14:07:01.268Z,84.40
2017-09-25T14:09:33.060Z,84.70
2017-09-25T14:12:21.321Z,85.10
2017-09-25T14:15:57.276Z,85.10
2017-09-25T14:18:36.991Z,84.90
2017-09-25T14:21:07.209Z,85.00
2017-09-25T14:23:37.405Z,85.70
2017-09-25T14:26:09.350Z,83.30
2017-09-25T14:28:40.092Z,84.20
2017-09-25T14:31:11.297Z,83.80
2017-09-25T14:33:41.411Z,83.80
2017-09-25T14:36:12.117Z,84.00
2017-09-25T14:38:42.833Z,84.70
2017-09-25T14:41:13.817Z,85.10
2017-09-25T14:43:44.295Z,85.00
2017-09-25T14:46:14.520Z,85.20
2017-09-25T14:48:45.465Z,85.70
2017-09-25T14:51:15.924Z,84.70
2017-09-25T14:53:46.548Z,85.60
2017-09-25T14:56:17.184Z,85.10
2017-09-25T14:58:48.039Z,85.40
2017-09-25T15:01:19.809Z,85.30
2017-09-25T15:03:55.623Z,85.60
2017-09-25T15:06:29.268Z,85.40
2017-09-25T15:09:01.931Z,85.40
2017-09-25T15:11:33.774Z,85.10
2017-09-25T15:14:04.971Z,85.00
2017-09-25T15:16:36.532Z,86.00
2017-09-25T15:19:08.132Z,85.50
2017-09-25T15:21:38.551Z,85.50
2017-09-25T15:24:09.629Z,85.60
2017-09-25T15:26:39.872Z,85.40
2017-09-25T15:29:10.557Z,85.20
2017-09-25T15:31:45.921Z,85.60
2017-09-25T15:34:20.662Z,85.30
2017-09-25T15:36:53.799Z,85.10
2017-09-25T15:39:24.517Z,85.30
2017-09-25T15:41:55.021Z,85.30
2017-09-25T15:44:26.859Z,85.30
2017-09-25T15:46:57.261Z,85.20
2017-09-25T15:49:29.166Z,85.50
2017-09-25T15:52:02.420Z,85.70
2017-09-25T15:54:33.295Z,84.80
2017-09-25T15:57:05.571Z,85.50
2017-09-25T15:59:36.790Z,85.40
2017-09-25T16:02:07.789Z,85.90
2017-09-25T16:04:38.180Z,85.90
2017-09-25T16:07:09.860Z,86.00
2017-09-25T16:09:40.517Z,85.90
2017-09-25T16:12:10.812Z,86.30
2017-09-25T16:14:41.993Z,86.60
2017-09-25T16:17:12.527Z,86.80
2017-09-25T16:19:45.021Z,86.70
2017-09-25T16:22:15.313Z,86.80
2017-09-25T16:24:45.657Z,86.60
2017-09-25T16:27:16.655Z,86.60
2017-09-25T16:29:47.710Z,86.70
2017-09-25T16:32:18.384Z,87.00
2017-09-25T16:34:48.916Z,86.90
2017-09-25T16:37:20.694Z,87.10
2017-09-25T16:39:51.243Z,87.00
2017-09-25T16:42:22.097Z,87.30
2017-09-25T16:44:52.428Z,87.10
2017-09-25T16:49:53.555Z,87.70
2017-09-25T16:52:23.709Z,87.70
2017-09-25T16:54:53.926Z,87.40
2017-09-25T16:57:24.763Z,87.40
2017-09-25T16:59:56.431Z,87.40
2017-09-25T17:02:27.897Z,87.50
2017-09-25T17:04:59.482Z,87.30
2017-09-25T17:07:32.049Z,87.30
2017-09-25T17:10:03.819Z,88.00
2017-09-25T17:12:37.133Z,88.20
2017-09-25T17:15:07.807Z,88.70
2017-09-25T17:17:39.478Z,89.70
2017-09-25T17:20:11.150Z,90.20
2017-09-25T17:22:44.062Z,90.20
2017-09-25T17:25:17.573Z,90.30
2017-09-25T17:27:48.695Z,90.30
2017-09-25T17:30:22.664Z,90.30
2017-09-25T17:32:55.134Z,90.40
2017-09-25T17:35:25.855Z,90.30
2017-09-25T17:37:59.679Z,90.40
2017-09-25T17:40:32.209Z,90.40
2017-09-25T17:43:03.261Z,90.70
2017-09-25T17:45:38.337Z,90.80
2017-09-25T17:48:16.490Z,90.90
2017-09-25T17:50:47.209Z,90.90
2017-09-25T17:53:19.703Z,90.90
2017-09-25T17:55:54.024Z,90.90
2017-09-25T17:58:24.243Z,90.90
2017-09-25T18:00:55.081Z,91.00
2017-09-25T18:03:25.280Z,91.10
2017-09-25T18:05:57.202Z,91.10
2017-09-25T18:08:27.655Z,91.20
2017-09-25T18:10:59.132Z,91.00
2017-09-25T18:13:30.478Z,91.00
2017-09-25T18:16:02.969Z,90.90
2017-09-25T18:18:34.368Z,91.00
2017-09-25T18:21:05.334Z,90.90
2017-09-25T18:23:41.005Z,90.90
2017-09-25T18:26:15.144Z,91.00
2017-09-25T18:28:47.017Z,90.90
2017-09-25T18:31:18.688Z,90.80
2017-09-25T18:33:51.331Z,90.80
2017-09-25T18:36:22.260Z,90.90
2017-09-25T18:38:53.788Z,91.00
2017-09-25T18:41:25.320Z,91.00
2017-09-25T18:43:56.917Z,91.10
2017-09-25T18:46:29.816Z,91.20
2017-09-25T18:49:02.715Z,91.20
2017-09-25T18:51:33.567Z,91.30
2017-09-25T18:54:05.148Z,91.40
2017-09-25T18:56:37.557Z,91.40
2017-09-25T18:59:09.425Z,91.90
2017-09-25T19:01:41.344Z,91.90
2017-09-25T19:04:15.025Z,92.40
2017-09-25T19:06:48.125Z,93.00
2017-09-25T19:09:21.266Z,93.00
2017-09-25T19:11:53.580Z,93.30
2017-09-25T19:14:25.704Z,93.30
2017-09-25T19:16:56.187Z,92.70
2017-09-25T19:19:26.909Z,92.70
2017-09-25T19:21:57.218Z,92.80
2017-09-25T19:24:28.774Z,92.70
2017-09-25T19:27:00.661Z,92.70
2017-09-25T19:29:31.920Z,92.70
2017-09-25T19:32:02.782Z,92.70
2017-09-25T19:34:40.252Z,92.30
2017-09-25T19:37:14.262Z,92.30
2017-09-25T19:39:45.158Z,92.30
2017-09-25T19:42:16.874Z,92.20
2017-09-25T19:44:47.718Z,92.50
2017-09-25T19:47:20.290Z,92.20
2017-09-25T19:49:54.251Z,92.20
2017-09-25T19:52:31.350Z,92.10
2017-09-25T19:55:02.241Z,92.00
2017-09-25T19:57:35.973Z,91.90
2017-09-25T20:00:06.978Z,91.90
2017-09-25T20:02:39.035Z,91.90
2017-09-25T20:05:11.167Z,91.90
2017-09-25T20:07:41.569Z,91.90
2017-09-25T20:10:12.390Z,92.20
2017-09-25T20:12:43.901Z,92.20
2017-09-25T20:15:16.261Z,92.20
2017-09-25T20:17:47.059Z,92.40
2017-09-25T20:20:17.648Z,92.10
2017-09-25T20:22:47.904Z,92.10
2017-09-25T20:25:19.041Z,92.20
2017-09-25T20:27:49.955Z,92.20
2017-09-25T20:30:20.226Z,92.20
2017-09-25T20:32:51.222Z,92.10
2017-09-25T20:35:28.293Z,92.10
2017-09-25T20:37:59.911Z,92.70
2017-09-25T20:40:30.172Z,92.60
2017-09-25T20:43:00.763Z,92.60
2017-09-25T20:45:31.907Z,92.80
2017-09-25T20:48:02.136Z,93.30
2017-09-25T20:50:32.590Z,94.20
2017-09-25T20:53:04.063Z,94.60
2017-09-25T20:55:35.090Z,94.30
2017-09-25T20:58:05.523Z,94.30
2017-09-25T21:00:36.023Z,93.70
2017-09-25T21:03:06.598Z,94.20
2017-09-25T21:05:37.583Z,93.80
2017-09-25T21:08:07.683Z,93.40
2017-09-25T21:10:38.122Z,93.10
2017-09-25T21:13:08.297Z,92.90
2017-09-25T21:15:39.074Z,92.60
2017-09-25T21:18:09.823Z,92.70
2017-09-25T21:20:40.297Z,92.60
2017-09-25T21:23:11.297Z,93.40
2017-09-25T21:25:42.701Z,93.40
2017-09-25T21:28:13.725Z,93.70
2017-09-25T21:30:45.813Z,93.60
2017-09-25T21:33:16.543Z,93.60
2017-09-25T21:35:47.775Z,93.60
2017-09-25T21:38:17.925Z,93.70
2017-09-25T21:40:48.310Z,93.50
2017-09-25T21:43:19.185Z,93.20
2017-09-25T21:45:49.667Z,93.30
2017-09-25T21:48:20.285Z,93.40
2017-09-25T21:50:50.367Z,93.10
2017-09-25T21:53:20.992Z,93.60
2017-09-25T21:55:51.704Z,93.40
2017-09-25T21:58:22.882Z,93.30
2017-09-25T22:00:53.146Z,93.30
2017-09-25T22:03:23.537Z,93.10
2017-09-25T22:05:53.950Z,93.30
2017-09-25T22:08:24.522Z,93.30
2017-09-25T22:10:55.060Z,93.30
2017-09-25T22:13:25.635Z,93.30
2017-09-25T22:15:56.563Z,93.10
2017-09-25T22:18:27.777Z,93.00
2017-09-25T22:20:57.961Z,93.20
2017-09-25T22:23:28.325Z,93.10
2017-09-25T22:25:58.601Z,93.10
2017-09-25T22:28:29.412Z,93.10
2017-09-25T22:30:59.419Z,93.80
2017-09-25T22:33:29.758Z,93.60
2017-09-25T22:36:00.139Z,93.40
2017-09-25T22:38:32.088Z,93.90
2017-09-25T22:41:02.679Z,93.90
2017-09-25T22:43:33.222Z,94.00
2017-09-25T22:46:03.810Z,93.90
2017-09-25T22:48:34.652Z,94.60
2017-09-25T22:51:05.381Z,94.50
2017-09-25T22:53:35.649Z,94.40
2017-09-25T22:56:05.805Z,94.70
2017-09-25T22:58:38.305Z,95.40
2017-09-25T23:01:09.319Z,95.40
2017-09-25T23:03:39.965Z,95.50
2017-09-25T23:06:11.234Z,95.50
2017-09-25T23:08:42.138Z,95.10
2017-09-25T23:11:12.708Z,94.90
2017-09-25T23:13:43.639Z,94.90
2017-09-25T23:16:14.233Z,94.70
2017-09-25T23:18:45.273Z,94.80
2017-09-25T23:21:15.550Z,94.50
2017-09-25T23:23:46.075Z,94.30
2017-09-25T23:26:16.417Z,94.30
2017-09-25T23:28:47.835Z,94.20
2017-09-25T23:31:18.006Z,94.00
2017-09-25T23:33:48.498Z,94.20
2017-09-25T23:36:19.418Z,94.00
2017-09-25T23:38:50.110Z,94.00
2017-09-25T23:41:20.609Z,93.90
2017-09-25T23:43:51.393Z,94.00
2017-09-25T23:46:22.479Z,93.80
2017-09-25T23:48:53.061Z,93.80
2017-09-25T23:51:24.086Z,93.90
2017-09-25T23:53:54.206Z,93.90
2017-09-25T23:56:24.418Z,94.00
2017-09-25T23:58:55.004Z,93.90
